sensor_id;sensor_type;location;lat;lon;timestamp;temperature;humidity
60701;DHT22;46541;49.894;10.886;2022-12-07T00:03:43;5.00;99.90
60701;DHT22;46541;49.894;10.886;2022-12-07T00:06:14;5.00;99.90
60701;DHT22;46541;49.894;10.886;2022-12-07T00:08:42;5.00;99.90
60701;DHT22;46541;49.894;10.886;2022-12-07T00:11:11;5.00;99.90
60701;DHT22;46541;49.894;10.886;2022-12-07T00:13:39;5.00;99.90
60701;DHT22;46541;49.894;10.886;2022-12-07T00:16:09;5.00;99.90
60701;DHT22;46541;49.894;10.886;2022-12-07T00:18:37;5.00;99.90
60701;DHT22;46541;49.894;10.886;2022-12-07T00:23:38;5.10;99.90
60701;DHT22;46541;49.894;10.886;2022-12-07T00:26:06;5.10;99.90
60701;DHT22;46541;49.894;10.886;2022-12-07T00:28:33;5.10;99.90
60701;DHT22;46541;49.894;10.886;2022-12-07T00:31:11;5.10;99.90
60701;DHT22;46541;49.894;10.886;2022-12-07T00:33:38;5.10;99.90
60701;DHT22;46541;49.894;10.886;2022-12-07T00:36:08;5.00;99.90
60701;DHT22;46541;49.894;10.886;2022-12-07T00:38:36;5.00;99.90
60701;DHT22;46541;49.894;10.886;2022-12-07T00:41:06;5.00;99.90
60701;DHT22;46541;49.894;10.886;2022-12-07T00:43:33;4.90;99.90
60701;DHT22;46541;49.894;10.886;2022-12-07T00:46:00;4.90;99.90
60701;DHT22;46541;49.894;10.886;2022-12-07T00:48:27;5.00;99.90
60701;DHT22;46541;49.894;10.886;2022-12-07T00:50:54;5.00;99.90
60701;DHT22;46541;49.894;10.886;2022-12-07T00:53:21;4.90;99.90
60701;DHT22;46541;49.894;10.886;2022-12-07T00:55:48;4.90;99.90
60701;DHT22;46541;49.894;10.886;2022-12-07T00:58:15;4.90;99.90
60701;DHT22;46541;49.894;10.886;2022-12-07T01:00:42;4.90;99.90
60701;DHT22;46541;49.894;10.886;2022-12-07T01:03:12;4.90;99.90
60701;DHT22;46541;49.894;10.886;2022-12-07T01:05:40;4.90;99.90
60701;DHT22;46541;49.894;10.886;2022-12-07T01:08:14;4.90;99.90
60701;DHT22;46541;49.894;10.886;2022-12-07T01:10:41;4.90;99.90
60701;DHT22;46541;49.894;10.886;2022-12-07T01:13:08;4.90;99.90
60701;DHT22;46541;49.894;10.886;2022-12-07T01:15:39;4.90;99.90
60701;DHT22;46541;49.894;10.886;2022-12-07T01:18:06;4.90;99.90
60701;DHT22;46541;49.894;10.886;2022-12-07T01:20:33;4.90;99.90
60701;DHT22;46541;49.894;10.886;2022-12-07T01:22:59;4.90;99.90
60701;DHT22;46541;49.894;10.886;2022-12-07T01:25:26;4.90;99.90
60701;DHT22;46541;49.894;10.886;2022-12-07T01:27:53;4.90;99.90
60701;DHT22;46541;49.894;10.886;2022-12-07T01:30:20;4.90;99.90
60701;DHT22;46541;49.894;10.886;2022-12-07T01:32:46;4.90;99.90
60701;DHT22;46541;49.894;10.886;2022-12-07T01:35:13;4.80;99.90
60701;DHT22;46541;49.894;10.886;2022-12-07T01:37:40;4.80;99.90
60701;DHT22;46541;49.894;10.886;2022-12-07T01:40:08;4.80;99.90
60701;DHT22;46541;49.894;10.886;2022-12-07T01:42:35;4.80;99.90
60701;DHT22;46541;49.894;10.886;2022-12-07T01:45:31;4.80;99.90
60701;DHT22;46541;49.894;10.886;2022-12-07T01:48:03;4.80;99.90
60701;DHT22;46541;49.894;10.886;2022-12-07T01:50:30;4.90;99.90
60701;DHT22;46541;49.894;10.886;2022-12-07T01:52:59;4.90;99.90
60701;DHT22;46541;49.894;10.886;2022-12-07T01:55:27;4.80;99.90
60701;DHT22;46541;49.894;10.886;2022-12-07T01:57:55;4.80;99.90
60701;DHT22;46541;49.894;10.886;2022-12-07T02:00:22;4.80;99.90
60701;DHT22;46541;49.894;10.886;2022-12-07T02:03:19;4.80;99.90
60701;DHT22;46541;49.894;10.886;2022-12-07T02:05:49;4.70;99.90
60701;DHT22;46541;49.894;10.886;2022-12-07T02:08:17;4.70;99.90
60701;DHT22;46541;49.894;10.886;2022-12-07T02:10:45;4.70;99.90
60701;DHT22;46541;49.894;10.886;2022-12-07T02:13:15;4.80;99.90
60701;DHT22;46541;49.894;10.886;2022-12-07T02:21:26;4.80;99.90
60701;DHT22;46541;49.894;10.886;2022-12-07T02:32:23;4.80;99.90
60701;DHT22;46541;49.894;10.886;2022-12-07T02:35:11;4.80;99.90
60701;DHT22;46541;49.894;10.886;2022-12-07T02:40:22;4.80;99.90
60701;DHT22;46541;49.894;10.886;2022-12-07T02:42:58;4.70;99.90
60701;DHT22;46541;49.894;10.886;2022-12-07T02:45:27;4.70;99.90
60701;DHT22;46541;49.894;10.886;2022-12-07T02:47:58;4.70;99.90
60701;DHT22;46541;49.894;10.886;2022-12-07T02:50:26;4.70;99.90
60701;DHT22;46541;49.894;10.886;2022-12-07T02:52:52;4.70;99.90
60701;DHT22;46541;49.894;10.886;2022-12-07T02:55:25;4.60;99.90
60701;DHT22;46541;49.894;10.886;2022-12-07T03:00:43;4.60;99.90
60701;DHT22;46541;49.894;10.886;2022-12-07T03:03:12;4.60;99.90
60701;DHT22;46541;49.894;10.886;2022-12-07T03:08:38;4.60;99.90
60701;DHT22;46541;49.894;10.886;2022-12-07T03:11:14;4.50;99.90
60701;DHT22;46541;49.894;10.886;2022-12-07T03:18:55;4.40;99.90
60701;DHT22;46541;49.894;10.886;2022-12-07T03:21:36;4.30;99.90
60701;DHT22;46541;49.894;10.886;2022-12-07T03:24:12;4.40;99.90
60701;DHT22;46541;49.894;10.886;2022-12-07T03:26:49;4.30;99.90
60701;DHT22;46541;49.894;10.886;2022-12-07T03:29:22;4.30;99.90
60701;DHT22;46541;49.894;10.886;2022-12-07T03:31:58;4.40;99.90
60701;DHT22;46541;49.894;10.886;2022-12-07T03:34:32;4.30;99.90
60701;DHT22;46541;49.894;10.886;2022-12-07T03:37:04;4.30;99.90
60701;DHT22;46541;49.894;10.886;2022-12-07T03:39:46;4.30;99.90
60701;DHT22;46541;49.894;10.886;2022-12-07T03:42:16;4.30;99.90
60701;DHT22;46541;49.894;10.886;2022-12-07T03:44:42;4.30;99.90
60701;DHT22;46541;49.894;10.886;2022-12-07T03:47:27;4.30;99.90
60701;DHT22;46541;49.894;10.886;2022-12-07T03:50:05;4.20;99.90
60701;DHT22;46541;49.894;10.886;2022-12-07T03:52:51;4.30;99.90
60701;DHT22;46541;49.894;10.886;2022-12-07T03:55:23;4.30;99.90
60701;DHT22;46541;49.894;10.886;2022-12-07T03:57:54;4.30;99.90
60701;DHT22;46541;49.894;10.886;2022-12-07T04:00:22;4.30;99.90
60701;DHT22;46541;49.894;10.886;2022-12-07T04:02:52;4.30;99.90
60701;DHT22;46541;49.894;10.886;2022-12-07T04:05:19;4.30;99.90
60701;DHT22;46541;49.894;10.886;2022-12-07T04:07:46;4.30;99.90
60701;DHT22;46541;49.894;10.886;2022-12-07T04:10:13;4.30;99.90
60701;DHT22;46541;49.894;10.886;2022-12-07T04:12:40;4.30;99.90
60701;DHT22;46541;49.894;10.886;2022-12-07T04:15:08;4.30;99.90
60701;DHT22;46541;49.894;10.886;2022-12-07T04:17:35;4.30;99.90
60701;DHT22;46541;49.894;10.886;2022-12-07T04:20:03;4.40;99.90
60701;DHT22;46541;49.894;10.886;2022-12-07T04:22:30;4.40;99.90
60701;DHT22;46541;49.894;10.886;2022-12-07T04:24:57;4.40;99.90
60701;DHT22;46541;49.894;10.886;2022-12-07T04:27:24;4.40;99.90
60701;DHT22;46541;49.894;10.886;2022-12-07T04:29:51;4.50;99.90
60701;DHT22;46541;49.894;10.886;2022-12-07T04:32:18;4.40;99.90
60701;DHT22;46541;49.894;10.886;2022-12-07T04:34:44;4.40;99.90
60701;DHT22;46541;49.894;10.886;2022-12-07T04:37:11;4.50;99.90
60701;DHT22;46541;49.894;10.886;2022-12-07T04:39:38;4.40;99.90
60701;DHT22;46541;49.894;10.886;2022-12-07T04:42:05;4.40;99.90
60701;DHT22;46541;49.894;10.886;2022-12-07T04:44:32;4.50;99.90
60701;DHT22;46541;49.894;10.886;2022-12-07T04:46:58;4.50;99.90
60701;DHT22;46541;49.894;10.886;2022-12-07T04:49:25;4.50;99.90
60701;DHT22;46541;49.894;10.886;2022-12-07T04:51:52;4.50;99.90
60701;DHT22;46541;49.894;10.886;2022-12-07T04:54:19;4.50;99.90
60701;DHT22;46541;49.894;10.886;2022-12-07T04:56:46;4.50;99.90
60701;DHT22;46541;49.894;10.886;2022-12-07T04:59:14;4.60;99.90
60701;DHT22;46541;49.894;10.886;2022-12-07T05:01:42;4.60;99.90
60701;DHT22;46541;49.894;10.886;2022-12-07T05:04:09;4.60;99.90
60701;DHT22;46541;49.894;10.886;2022-12-07T05:06:35;4.60;99.90
60701;DHT22;46541;49.894;10.886;2022-12-07T05:09:03;4.50;99.90
60701;DHT22;46541;49.894;10.886;2022-12-07T05:11:30;4.60;99.90
60701;DHT22;46541;49.894;10.886;2022-12-07T05:14:10;4.50;99.90
60701;DHT22;46541;49.894;10.886;2022-12-07T05:16:38;4.50;99.90
60701;DHT22;46541;49.894;10.886;2022-12-07T05:19:05;4.50;99.90
60701;DHT22;46541;49.894;10.886;2022-12-07T05:21:32;4.50;99.90
60701;DHT22;46541;49.894;10.886;2022-12-07T05:23:59;4.50;99.90
60701;DHT22;46541;49.894;10.886;2022-12-07T05:26:26;4.50;99.90
60701;DHT22;46541;49.894;10.886;2022-12-07T05:28:54;4.50;99.90
60701;DHT22;46541;49.894;10.886;2022-12-07T05:31:23;4.50;99.90
60701;DHT22;46541;49.894;10.886;2022-12-07T05:33:50;4.50;99.90
60701;DHT22;46541;49.894;10.886;2022-12-07T05:36:17;4.50;99.90
60701;DHT22;46541;49.894;10.886;2022-12-07T05:38:44;4.50;99.90
60701;DHT22;46541;49.894;10.886;2022-12-07T05:41:14;4.50;99.90
60701;DHT22;46541;49.894;10.886;2022-12-07T05:44:00;4.40;99.90
60701;DHT22;46541;49.894;10.886;2022-12-07T05:46:27;4.40;99.90
60701;DHT22;46541;49.894;10.886;2022-12-07T05:48:54;4.50;99.90
60701;DHT22;46541;49.894;10.886;2022-12-07T05:51:21;4.40;99.90
60701;DHT22;46541;49.894;10.886;2022-12-07T05:53:48;4.40;99.90
60701;DHT22;46541;49.894;10.886;2022-12-07T05:56:14;4.40;99.90
60701;DHT22;46541;49.894;10.886;2022-12-07T05:58:41;4.40;99.90
60701;DHT22;46541;49.894;10.886;2022-12-07T06:01:27;4.50;99.90
60701;DHT22;46541;49.894;10.886;2022-12-07T06:03:54;4.50;99.90
60701;DHT22;46541;49.894;10.886;2022-12-07T06:06:21;4.40;99.90
60701;DHT22;46541;49.894;10.886;2022-12-07T06:08:47;4.50;99.90
60701;DHT22;46541;49.894;10.886;2022-12-07T06:11:14;4.50;99.90
60701;DHT22;46541;49.894;10.886;2022-12-07T06:14:00;4.50;99.90
60701;DHT22;46541;49.894;10.886;2022-12-07T06:16:26;4.50;99.90
60701;DHT22;46541;49.894;10.886;2022-12-07T06:18:53;4.50;99.90
60701;DHT22;46541;49.894;10.886;2022-12-07T06:21:20;4.50;99.90
60701;DHT22;46541;49.894;10.886;2022-12-07T06:23:47;4.50;99.90
60701;DHT22;46541;49.894;10.886;2022-12-07T06:26:14;4.50;99.90
60701;DHT22;46541;49.894;10.886;2022-12-07T06:28:41;4.60;99.90
60701;DHT22;46541;49.894;10.886;2022-12-07T06:31:08;4.60;99.90
60701;DHT22;46541;49.894;10.886;2022-12-07T06:33:40;4.60;99.90
60701;DHT22;46541;49.894;10.886;2022-12-07T06:36:07;4.60;99.90
60701;DHT22;46541;49.894;10.886;2022-12-07T06:38:34;4.60;99.90
60701;DHT22;46541;49.894;10.886;2022-12-07T06:41:01;4.50;99.90
60701;DHT22;46541;49.894;10.886;2022-12-07T06:43:27;4.50;99.90
60701;DHT22;46541;49.894;10.886;2022-12-07T06:45:54;4.50;99.90
60701;DHT22;46541;49.894;10.886;2022-12-07T06:48:21;4.50;99.90
60701;DHT22;46541;49.894;10.886;2022-12-07T06:50:48;4.60;99.90
60701;DHT22;46541;49.894;10.886;2022-12-07T06:53:21;4.60;99.90
60701;DHT22;46541;49.894;10.886;2022-12-07T06:55:48;4.60;99.90
60701;DHT22;46541;49.894;10.886;2022-12-07T06:58:14;4.60;99.90
60701;DHT22;46541;49.894;10.886;2022-12-07T07:00:42;4.60;99.90
60701;DHT22;46541;49.894;10.886;2022-12-07T07:03:09;4.70;99.90
60701;DHT22;46541;49.894;10.886;2022-12-07T07:05:36;4.70;99.90
60701;DHT22;46541;49.894;10.886;2022-12-07T07:08:03;4.70;99.90
60701;DHT22;46541;49.894;10.886;2022-12-07T07:10:48;4.70;99.90
60701;DHT22;46541;49.894;10.886;2022-12-07T07:13:15;4.60;99.90
60701;DHT22;46541;49.894;10.886;2022-12-07T07:15:41;4.70;99.90
60701;DHT22;46541;49.894;10.886;2022-12-07T07:18:09;4.60;99.90
60701;DHT22;46541;49.894;10.886;2022-12-07T07:20:36;4.60;99.90
60701;DHT22;46541;49.894;10.886;2022-12-07T07:23:03;4.60;99.90
60701;DHT22;46541;49.894;10.886;2022-12-07T07:25:30;4.70;99.90
60701;DHT22;46541;49.894;10.886;2022-12-07T07:27:57;4.70;99.90
60701;DHT22;46541;49.894;10.886;2022-12-07T07:30:24;4.60;99.90
60701;DHT22;46541;49.894;10.886;2022-12-07T07:32:50;4.70;99.90
60701;DHT22;46541;49.894;10.886;2022-12-07T07:35:17;4.60;99.90
60701;DHT22;46541;49.894;10.886;2022-12-07T07:37:44;4.60;99.90
60701;DHT22;46541;49.894;10.886;2022-12-07T07:40:11;4.70;99.90
60701;DHT22;46541;49.894;10.886;2022-12-07T07:42:38;4.60;99.90
60701;DHT22;46541;49.894;10.886;2022-12-07T07:45:05;4.60;99.90
60701;DHT22;46541;49.894;10.886;2022-12-07T07:47:32;4.60;99.90
60701;DHT22;46541;49.894;10.886;2022-12-07T07:49:59;4.60;99.90
60701;DHT22;46541;49.894;10.886;2022-12-07T07:52:26;4.60;99.90
60701;DHT22;46541;49.894;10.886;2022-12-07T07:54:53;4.70;99.90
60701;DHT22;46541;49.894;10.886;2022-12-07T07:57:19;4.70;99.90
60701;DHT22;46541;49.894;10.886;2022-12-07T07:59:46;4.70;99.90
60701;DHT22;46541;49.894;10.886;2022-12-07T08:02:18;4.70;99.90
60701;DHT22;46541;49.894;10.886;2022-12-07T08:04:45;4.80;99.90
60701;DHT22;46541;49.894;10.886;2022-12-07T08:07:14;4.80;99.90
60701;DHT22;46541;49.894;10.886;2022-12-07T08:09:41;4.80;99.90
60701;DHT22;46541;49.894;10.886;2022-12-07T08:12:08;4.80;99.90
60701;DHT22;46541;49.894;10.886;2022-12-07T08:14:35;4.80;99.90
60701;DHT22;46541;49.894;10.886;2022-12-07T08:17:02;4.80;99.90
60701;DHT22;46541;49.894;10.886;2022-12-07T08:19:29;4.90;99.90
60701;DHT22;46541;49.894;10.886;2022-12-07T08:21:56;4.90;99.90
60701;DHT22;46541;49.894;10.886;2022-12-07T08:24:23;5.00;99.90
60701;DHT22;46541;49.894;10.886;2022-12-07T08:26:51;5.00;99.90
60701;DHT22;46541;49.894;10.886;2022-12-07T08:29:18;5.00;99.90
60701;DHT22;46541;49.894;10.886;2022-12-07T08:31:45;5.00;99.90
60701;DHT22;46541;49.894;10.886;2022-12-07T08:34:12;5.00;99.90
60701;DHT22;46541;49.894;10.886;2022-12-07T08:36:40;5.00;99.90
60701;DHT22;46541;49.894;10.886;2022-12-07T08:39:06;5.00;99.90
60701;DHT22;46541;49.894;10.886;2022-12-07T08:41:53;5.10;99.90
60701;DHT22;46541;49.894;10.886;2022-12-07T08:44:21;5.10;99.90
60701;DHT22;46541;49.894;10.886;2022-12-07T08:46:54;5.10;99.90
60701;DHT22;46541;49.894;10.886;2022-12-07T08:49:30;5.10;99.90
60701;DHT22;46541;49.894;10.886;2022-12-07T08:51:58;5.10;99.90
60701;DHT22;46541;49.894;10.886;2022-12-07T08:54:25;5.10;99.90
60701;DHT22;46541;49.894;10.886;2022-12-07T08:56:54;5.10;99.90
60701;DHT22;46541;49.894;10.886;2022-12-07T08:59:25;5.00;99.90
60701;DHT22;46541;49.894;10.886;2022-12-07T09:01:53;5.10;99.90
60701;DHT22;46541;49.894;10.886;2022-12-07T09:04:20;5.10;99.90
60701;DHT22;46541;49.894;10.886;2022-12-07T09:06:47;5.10;99.90
60701;DHT22;46541;49.894;10.886;2022-12-07T09:09:14;5.20;99.90
60701;DHT22;46541;49.894;10.886;2022-12-07T09:11:41;5.10;99.90
60701;DHT22;46541;49.894;10.886;2022-12-07T09:14:08;5.10;99.90
60701;DHT22;46541;49.894;10.886;2022-12-07T09:16:35;5.20;99.90
60701;DHT22;46541;49.894;10.886;2022-12-07T09:19:02;5.20;99.90
60701;DHT22;46541;49.894;10.886;2022-12-07T09:21:29;5.20;99.90
60701;DHT22;46541;49.894;10.886;2022-12-07T09:23:56;5.10;99.90
60701;DHT22;46541;49.894;10.886;2022-12-07T09:26:22;5.10;99.90
60701;DHT22;46541;49.894;10.886;2022-12-07T09:28:49;5.10;99.90
60701;DHT22;46541;49.894;10.886;2022-12-07T09:31:16;5.20;99.90
60701;DHT22;46541;49.894;10.886;2022-12-07T09:33:59;5.20;99.90
60701;DHT22;46541;49.894;10.886;2022-12-07T09:36:28;5.20;99.90
60701;DHT22;46541;49.894;10.886;2022-12-07T09:38:55;5.20;99.90
60701;DHT22;46541;49.894;10.886;2022-12-07T09:41:23;5.30;99.90
60701;DHT22;46541;49.894;10.886;2022-12-07T09:43:52;5.30;99.90
60701;DHT22;46541;49.894;10.886;2022-12-07T09:46:20;5.40;99.90
60701;DHT22;46541;49.894;10.886;2022-12-07T09:48:49;5.40;99.90
60701;DHT22;46541;49.894;10.886;2022-12-07T09:51:21;5.40;99.90
60701;DHT22;46541;49.894;10.886;2022-12-07T09:53:52;5.40;99.90
60701;DHT22;46541;49.894;10.886;2022-12-07T09:56:19;5.40;99.90
60701;DHT22;46541;49.894;10.886;2022-12-07T09:58:47;5.40;99.90
60701;DHT22;46541;49.894;10.886;2022-12-07T10:01:20;5.50;99.90
60701;DHT22;46541;49.894;10.886;2022-12-07T10:03:52;5.60;99.90
60701;DHT22;46541;49.894;10.886;2022-12-07T10:06:20;5.60;99.90
60701;DHT22;46541;49.894;10.886;2022-12-07T10:08:47;5.60;99.90
60701;DHT22;46541;49.894;10.886;2022-12-07T10:11:14;5.60;99.90
60701;DHT22;46541;49.894;10.886;2022-12-07T10:13:51;5.70;99.90
60701;DHT22;46541;49.894;10.886;2022-12-07T10:18:54;5.80;99.90
60701;DHT22;46541;49.894;10.886;2022-12-07T10:21:23;5.80;99.90
60701;DHT22;46541;49.894;10.886;2022-12-07T10:24:01;5.70;99.90
60701;DHT22;46541;49.894;10.886;2022-12-07T10:29:20;5.70;99.90
60701;DHT22;46541;49.894;10.886;2022-12-07T10:31:57;5.70;99.90
60701;DHT22;46541;49.894;10.886;2022-12-07T10:36:52;5.80;99.90
60701;DHT22;46541;49.894;10.886;2022-12-07T10:39:21;5.80;99.90
60701;DHT22;46541;49.894;10.886;2022-12-07T10:41:55;5.80;99.90
60701;DHT22;46541;49.894;10.886;2022-12-07T10:44:28;5.70;99.90
60701;DHT22;46541;49.894;10.886;2022-12-07T11:00:00;5.80;99.90
60701;DHT22;46541;49.894;10.886;2022-12-07T11:02:32;5.90;99.90
60701;DHT22;46541;49.894;10.886;2022-12-07T11:05:16;5.90;99.90
60701;DHT22;46541;49.894;10.886;2022-12-07T11:10:44;5.90;99.90
60701;DHT22;46541;49.894;10.886;2022-12-07T11:13:29;6.00;99.90
60701;DHT22;46541;49.894;10.886;2022-12-07T11:21:45;6.10;99.90
60701;DHT22;46541;49.894;10.886;2022-12-07T11:24:18;6.20;99.90
60701;DHT22;46541;49.894;10.886;2022-12-07T11:27:09;6.20;99.90
60701;DHT22;46541;49.894;10.886;2022-12-07T11:37:34;6.40;99.90
60701;DHT22;46541;49.894;10.886;2022-12-07T11:45:35;6.10;99.90
60701;DHT22;46541;49.894;10.886;2022-12-07T11:48:17;6.10;99.90
60701;DHT22;46541;49.894;10.886;2022-12-07T11:50:55;6.10;99.90
60701;DHT22;46541;49.894;10.886;2022-12-07T11:53:28;6.10;99.90
60701;DHT22;46541;49.894;10.886;2022-12-07T12:06:39;5.90;99.90
60701;DHT22;46541;49.894;10.886;2022-12-07T12:09:18;5.80;99.90
60701;DHT22;46541;49.894;10.886;2022-12-07T12:20:25;5.80;99.90
60701;DHT22;46541;49.894;10.886;2022-12-07T12:25:49;6.00;99.90
60701;DHT22;46541;49.894;10.886;2022-12-07T12:31:11;6.10;99.90
60701;DHT22;46541;49.894;10.886;2022-12-07T12:33:50;6.20;99.90
60701;DHT22;46541;49.894;10.886;2022-12-07T12:36:23;6.10;99.90
60701;DHT22;46541;49.894;10.886;2022-12-07T12:46:57;6.10;99.90
60701;DHT22;46541;49.894;10.886;2022-12-07T12:57:28;6.10;99.90
60701;DHT22;46541;49.894;10.886;2022-12-07T13:02:33;6.20;99.90
60701;DHT22;46541;49.894;10.886;2022-12-07T13:15:54;6.00;99.90
60701;DHT22;46541;49.894;10.886;2022-12-07T13:21:40;6.00;99.90
60701;DHT22;46541;49.894;10.886;2022-12-07T13:26:21;6.00;99.90
60701;DHT22;46541;49.894;10.886;2022-12-07T13:28:51;6.10;99.90
60701;DHT22;46541;49.894;10.886;2022-12-07T13:31:48;6.20;99.90
60701;DHT22;46541;49.894;10.886;2022-12-07T13:34:39;6.20;99.90
60701;DHT22;46541;49.894;10.886;2022-12-07T13:37:28;6.20;99.90
60701;DHT22;46541;49.894;10.886;2022-12-07T13:40:19;6.20;99.90
60701;DHT22;46541;49.894;10.886;2022-12-07T13:42:46;6.20;99.90
60701;DHT22;46541;49.894;10.886;2022-12-07T13:45:23;6.20;99.90
60701;DHT22;46541;49.894;10.886;2022-12-07T13:48:42;6.30;99.90
60701;DHT22;46541;49.894;10.886;2022-12-07T13:51:23;6.30;99.90
60701;DHT22;46541;49.894;10.886;2022-12-07T13:53:55;6.30;99.90
60701;DHT22;46541;49.894;10.886;2022-12-07T13:56:32;6.20;99.90
60701;DHT22;46541;49.894;10.886;2022-12-07T13:59:00;6.30;99.90
60701;DHT22;46541;49.894;10.886;2022-12-07T14:01:30;6.30;99.90
60701;DHT22;46541;49.894;10.886;2022-12-07T14:06:55;6.30;99.90
60701;DHT22;46541;49.894;10.886;2022-12-07T14:09:24;6.20;99.90
60701;DHT22;46541;49.894;10.886;2022-12-07T14:11:56;6.20;99.90
60701;DHT22;46541;49.894;10.886;2022-12-07T14:14:29;6.20;99.90
60701;DHT22;46541;49.894;10.886;2022-12-07T14:17:19;6.20;99.90
60701;DHT22;46541;49.894;10.886;2022-12-07T14:19:55;6.10;99.90
60701;DHT22;46541;49.894;10.886;2022-12-07T14:22:32;6.10;99.90
60701;DHT22;46541;49.894;10.886;2022-12-07T14:25:19;6.10;99.90
60701;DHT22;46541;49.894;10.886;2022-12-07T14:30:16;6.10;99.90
60701;DHT22;46541;49.894;10.886;2022-12-07T14:32:44;6.10;99.90
60701;DHT22;46541;49.894;10.886;2022-12-07T14:35:16;6.00;99.90
60701;DHT22;46541;49.894;10.886;2022-12-07T14:37:46;6.00;99.90
60701;DHT22;46541;49.894;10.886;2022-12-07T14:40:21;6.00;99.90
60701;DHT22;46541;49.894;10.886;2022-12-07T14:42:52;6.00;99.90
60701;DHT22;46541;49.894;10.886;2022-12-07T14:45:22;6.00;99.90
60701;DHT22;46541;49.894;10.886;2022-12-07T14:47:49;6.00;99.90
60701;DHT22;46541;49.894;10.886;2022-12-07T14:50:38;6.00;99.90
60701;DHT22;46541;49.894;10.886;2022-12-07T14:53:33;5.90;99.90
60701;DHT22;46541;49.894;10.886;2022-12-07T14:56:00;5.90;99.90
60701;DHT22;46541;49.894;10.886;2022-12-07T14:58:27;5.80;99.90
60701;DHT22;46541;49.894;10.886;2022-12-07T15:00:53;5.70;99.90
60701;DHT22;46541;49.894;10.886;2022-12-07T15:03:20;5.70;99.90
60701;DHT22;46541;49.894;10.886;2022-12-07T15:05:47;5.60;99.90
60701;DHT22;46541;49.894;10.886;2022-12-07T15:08:14;5.50;99.90
60701;DHT22;46541;49.894;10.886;2022-12-07T15:10:41;5.40;99.90
60701;DHT22;46541;49.894;10.886;2022-12-07T15:13:08;5.30;99.90
60701;DHT22;46541;49.894;10.886;2022-12-07T15:15:54;5.20;99.90
60701;DHT22;46541;49.894;10.886;2022-12-07T15:18:22;5.20;99.90
60701;DHT22;46541;49.894;10.886;2022-12-07T15:20:50;5.20;99.90
60701;DHT22;46541;49.894;10.886;2022-12-07T15:23:18;5.10;99.90
60701;DHT22;46541;49.894;10.886;2022-12-07T15:25:47;5.10;99.90
60701;DHT22;46541;49.894;10.886;2022-12-07T15:28:14;5.10;99.90
60701;DHT22;46541;49.894;10.886;2022-12-07T15:30:42;5.10;99.90
60701;DHT22;46541;49.894;10.886;2022-12-07T15:33:11;5.20;99.90
60701;DHT22;46541;49.894;10.886;2022-12-07T15:35:39;5.20;99.90
60701;DHT22;46541;49.894;10.886;2022-12-07T15:38:06;5.20;99.90
60701;DHT22;46541;49.894;10.886;2022-12-07T15:40:33;5.20;99.90
60701;DHT22;46541;49.894;10.886;2022-12-07T15:43:01;5.30;99.90
60701;DHT22;46541;49.894;10.886;2022-12-07T15:45:28;5.20;99.90
60701;DHT22;46541;49.894;10.886;2022-12-07T15:47:54;5.20;99.90
60701;DHT22;46541;49.894;10.886;2022-12-07T15:50:41;5.30;99.90
60701;DHT22;46541;49.894;10.886;2022-12-07T15:53:08;5.30;99.90
60701;DHT22;46541;49.894;10.886;2022-12-07T15:55:35;5.30;99.90
60701;DHT22;46541;49.894;10.886;2022-12-07T15:58:04;5.30;99.90
60701;DHT22;46541;49.894;10.886;2022-12-07T16:00:31;5.30;99.90
60701;DHT22;46541;49.894;10.886;2022-12-07T16:02:58;5.30;99.90
60701;DHT22;46541;49.894;10.886;2022-12-07T16:05:25;5.30;99.90
60701;DHT22;46541;49.894;10.886;2022-12-07T16:07:52;5.30;99.90
60701;DHT22;46541;49.894;10.886;2022-12-07T16:10:19;5.20;99.90
60701;DHT22;46541;49.894;10.886;2022-12-07T16:12:45;5.00;99.90
60701;DHT22;46541;49.894;10.886;2022-12-07T16:15:12;5.00;99.90
60701;DHT22;46541;49.894;10.886;2022-12-07T16:17:39;4.90;99.90
60701;DHT22;46541;49.894;10.886;2022-12-07T16:20:06;4.90;99.90
60701;DHT22;46541;49.894;10.886;2022-12-07T16:22:34;4.80;99.90
60701;DHT22;46541;49.894;10.886;2022-12-07T16:25:02;4.80;99.90
60701;DHT22;46541;49.894;10.886;2022-12-07T16:27:29;4.80;99.90
60701;DHT22;46541;49.894;10.886;2022-12-07T16:29:56;4.70;99.90
60701;DHT22;46541;49.894;10.886;2022-12-07T16:32:22;4.70;99.90
60701;DHT22;46541;49.894;10.886;2022-12-07T16:34:49;4.70;99.90
60701;DHT22;46541;49.894;10.886;2022-12-07T16:37:16;4.70;99.90
60701;DHT22;46541;49.894;10.886;2022-12-07T16:39:43;4.80;99.90
60701;DHT22;46541;49.894;10.886;2022-12-07T16:42:10;4.80;99.90
60701;DHT22;46541;49.894;10.886;2022-12-07T16:44:36;4.80;99.90
60701;DHT22;46541;49.894;10.886;2022-12-07T16:47:03;4.80;99.90
60701;DHT22;46541;49.894;10.886;2022-12-07T16:49:30;4.80;99.90
60701;DHT22;46541;49.894;10.886;2022-12-07T16:51:57;4.90;99.90
60701;DHT22;46541;49.894;10.886;2022-12-07T16:54:44;4.90;99.90
60701;DHT22;46541;49.894;10.886;2022-12-07T16:57:11;4.90;99.90
60701;DHT22;46541;49.894;10.886;2022-12-07T16:59:45;4.90;99.90
60701;DHT22;46541;49.894;10.886;2022-12-07T17:02:12;4.90;99.90
60701;DHT22;46541;49.894;10.886;2022-12-07T17:04:39;4.90;99.90
60701;DHT22;46541;49.894;10.886;2022-12-07T17:07:09;4.90;99.90
60701;DHT22;46541;49.894;10.886;2022-12-07T17:09:36;4.90;99.90
60701;DHT22;46541;49.894;10.886;2022-12-07T17:12:03;4.90;99.90
60701;DHT22;46541;49.894;10.886;2022-12-07T17:14:31;4.80;99.90
60701;DHT22;46541;49.894;10.886;2022-12-07T17:17:17;4.80;99.90
60701;DHT22;46541;49.894;10.886;2022-12-07T17:19:43;4.70;99.90
60701;DHT22;46541;49.894;10.886;2022-12-07T17:22:10;4.80;99.90
60701;DHT22;46541;49.894;10.886;2022-12-07T17:24:39;4.80;99.90
60701;DHT22;46541;49.894;10.886;2022-12-07T17:27:06;4.70;99.90
60701;DHT22;46541;49.894;10.886;2022-12-07T17:29:32;4.80;99.90
60701;DHT22;46541;49.894;10.886;2022-12-07T17:31:59;4.80;99.90
60701;DHT22;46541;49.894;10.886;2022-12-07T17:34:26;4.80;99.90
60701;DHT22;46541;49.894;10.886;2022-12-07T17:36:53;4.80;99.90
60701;DHT22;46541;49.894;10.886;2022-12-07T17:39:21;4.90;99.90
60701;DHT22;46541;49.894;10.886;2022-12-07T17:41:48;4.90;99.90
60701;DHT22;46541;49.894;10.886;2022-12-07T17:44:34;4.90;99.90
60701;DHT22;46541;49.894;10.886;2022-12-07T17:47:00;4.90;99.90
60701;DHT22;46541;49.894;10.886;2022-12-07T17:49:29;4.80;99.90
60701;DHT22;46541;49.894;10.886;2022-12-07T17:51:56;4.80;99.90
60701;DHT22;46541;49.894;10.886;2022-12-07T17:54:42;4.70;99.90
60701;DHT22;46541;49.894;10.886;2022-12-07T17:57:09;4.60;99.90
60701;DHT22;46541;49.894;10.886;2022-12-07T17:59:35;4.60;99.90
60701;DHT22;46541;49.894;10.886;2022-12-07T18:02:02;4.50;99.90
60701;DHT22;46541;49.894;10.886;2022-12-07T18:04:29;4.50;99.90
60701;DHT22;46541;49.894;10.886;2022-12-07T18:06:56;4.50;99.90
60701;DHT22;46541;49.894;10.886;2022-12-07T18:09:24;4.40;99.90